Pagina principale
METAR-TAF:

METAR-TAF

Aeroporti :

Aeroporto Internazionale di Skopje

Skopje, Macedonia

latitudine: 41-58N, longitudine: 021-39E, altezza: 238 m

Osservazione

Il bollettino è stato emesso 31 minuti fa, alle 23:50 UTC
Vento 1 kt da direzioni variabili
Temperature 23°C
Umidità 73%
Pressione 1018 hPa
Visibilità 10 km o più
nessuna nube inferiore a 1500 m e nessun cumulonembo

METAR: LWSK 202350Z VRB01KT CAVOK 23/18 Q1018 NOSIG

Ora: 02:21 (00:21 UTC)

Previsione

Il bollettino è stato emesso 1 ora e 16 minuti fa, alle 23:05 UTC
Previsione valida dal 20 alle 21 UTC al 21 alle 21 UTC
Vento 2 kt da direzioni variabili
Visibilità 10 km o più
nessuna nube inferiore a 1500 m e nessun cumulonembo
Temporaneamente
dal 21 alle 14 UTC al 21 alle 18 UTC
Vento 10 kt da nord

TAF: LWSK 202305Z 2021/2121 VRB02KT CAVOK TEMPO 2114/2118 36010KT

Osservazioni e previsioni meteorologiche di più di 4000 aeroporti (messaggi METAR e TAF).

Le stazioni disponibili sono rappresentate dai dischi gialli e rossi sulla carta.

Puntare il mouse per vedere il nome della stazione.

Clicca sopra per visualizzare le osservazioni e previsioni meteorologiche.

Per cambiare la mappa : fare clic sui pulsanti verdi con una croce nera per ingrandire, il pulsante verde con un trattino per diminuire, o sulla freccia verde per le mappe adiacenti.


METAR-TAF: